Time;durP1;ratioP1;P1;durP2;ratioP2;P2;SDS_P1;SDS_P2;PMS_P1;PMS_P2;Temp;Humidity;BMP_temperature;BMP_pressure;BME280_temperature;BME280_humidity;BME280_pressure;Samples;Min_cycle;Max_cycle;Signal;HPM_P1;HPM_P2
2021/01/12 00:01:42;;;;;;;7.83;4.17;;;;;;;-0.59;74.75;100434.97;5003946;28;20208;-71
2021/01/12 00:04:08;;;;;;;7.70;4.37;;;;;;;-0.57;74.54;100433.28;5006359;28;20255;-72
2021/01/12 00:06:33;;;;;;;6.40;4.10;;;;;;;-0.55;74.56;100428.19;5006867;28;20561;-71
2021/01/12 00:08:59;;;;;;;6.17;4.17;;;;;;;-0.54;74.64;100418.81;5010005;28;20331;-70
2021/01/12 00:11:26;;;;;;;5.57;3.83;;;;;;;-0.53;74.02;100408.56;5006060;28;20192;-71
2021/01/12 00:13:52;;;;;;;6.80;4.10;;;;;;;-0.50;74.41;100406.06;5004666;28;20225;-70
2021/01/12 00:16:19;;;;;;;6.87;3.97;;;;;;;-0.49;74.84;100396.69;5006234;28;20299;-71
2021/01/12 00:18:45;;;;;;;6.43;3.87;;;;;;;-0.49;74.94;100399.25;5005747;28;20232;-72
2021/01/12 00:21:11;;;;;;;5.43;3.60;;;;;;;-0.50;75.29;100382.16;5001995;28;20225;-72
2021/01/12 00:23:37;;;;;;;5.37;4.00;;;;;;;-0.50;74.98;100379.59;5006561;28;20212;-72
2021/01/12 00:26:05;;;;;;;5.63;3.70;;;;;;;-0.45;74.78;100394.19;5003975;28;20236;-72
2021/01/12 00:28:33;;;;;;;5.43;3.77;;;;;;;-0.41;74.84;100395.09;5007977;28;20585;-73
2021/01/12 00:31:02;;;;;;;7.10;4.40;;;;;;;-0.40;74.79;100384.03;5001953;28;20205;-72
2021/01/12 00:33:28;;;;;;;6.47;4.20;;;;;;;-0.41;75.18;100380.59;5003975;28;20221;-72
2021/01/12 00:35:54;;;;;;;6.30;3.40;;;;;;;-0.38;74.85;100388.31;5003026;28;20200;-71
2021/01/12 00:38:20;;;;;;;6.87;4.13;;;;;;;-0.36;74.93;100378.09;5004879;28;20196;-71
2021/01/12 00:40:46;;;;;;;7.43;4.00;;;;;;;-0.34;75.01;100370.44;5001859;28;20200;-71
2021/01/12 00:43:12;;;;;;;4.97;3.70;;;;;;;-0.37;75.29;100371.25;5002821;28;20654;-71
2021/01/12 00:45:39;;;;;;;6.13;4.10;;;;;;;-0.35;75.42;100355.91;5000217;28;20671;-71
2021/01/12 00:48:05;;;;;;;5.23;3.43;;;;;;;-0.34;75.46;100360.19;5004032;28;20472;-71
2021/01/12 00:50:31;;;;;;;6.50;3.80;;;;;;;-0.35;75.32;100351.66;5003007;28;20282;-71
2021/01/12 00:52:57;;;;;;;6.27;4.07;;;;;;;-0.34;75.79;100357.63;5000814;28;20652;-71
2021/01/12 00:55:23;;;;;;;6.93;3.90;;;;;;;-0.32;75.55;100343.13;5004278;28;20656;-72
2021/01/12 00:57:49;;;;;;;6.30;4.20;;;;;;;-0.30;75.53;100346.56;5007001;28;20565;-72
2021/01/12 01:00:15;;;;;;;7.73;3.60;;;;;;;-0.30;75.80;100359.38;5002008;28;20251;-72
2021/01/12 01:02:42;;;;;;;6.00;4.20;;;;;;;-0.31;76.23;100348.28;4996551;28;20628;-71
2021/01/12 01:05:09;;;;;;;6.13;3.87;;;;;;;-0.32;76.27;100346.56;5003761;28;20212;-72
2021/01/12 01:07:35;;;;;;;6.33;4.17;;;;;;;-0.32;76.42;100336.31;5004631;28;20564;-72
2021/01/12 01:10:01;;;;;;;7.83;4.00;;;;;;;-0.29;76.59;100332.94;5004077;28;20217;-69
2021/01/12 01:12:27;;;;;;;5.33;3.87;;;;;;;-0.27;76.35;100333.81;5001200;28;20232;-73
2021/01/12 01:14:52;;;;;;;5.40;3.40;;;;;;;-0.24;76.20;100319.34;5004224;28;20683;-72
2021/01/12 01:17:18;;;;;;;7.50;4.47;;;;;;;-0.23;76.03;100328.75;5007252;28;20203;-73
2021/01/12 01:19:45;;;;;;;6.73;4.20;;;;;;;-0.18;76.02;100315.13;5006591;28;20236;-72
2021/01/12 01:22:11;;;;;;;5.67;3.70;;;;;;;-0.17;76.17;100314.31;4996614;28;20681;-72
2021/01/12 01:24:37;;;;;;;7.17;4.20;;;;;;;-0.14;75.67;100310.09;5002100;28;20262;-72
2021/01/12 01:27:03;;;;;;;5.87;4.07;;;;;;;-0.16;76.56;100286.09;5005188;28;20208;-72
2021/01/12 01:29:29;;;;;;;7.43;4.33;;;;;;;-0.14;76.10;100283.56;5006518;28;20235;-72
2021/01/12 01:31:55;;;;;;;5.50;3.80;;;;;;;-0.14;76.54;100281.88;5007571;28;20208;-72
2021/01/12 01:34:21;;;;;;;7.37;4.10;;;;;;;-0.17;76.88;100279.28;4998784;28;20262;-71
2021/01/12 01:36:47;;;;;;;6.47;4.20;;;;;;;-0.14;77.16;100273.31;5002141;28;20211;-72
2021/01/12 01:39:13;;;;;;;8.27;4.83;;;;;;;-0.14;76.86;100270.75;5001039;28;20224;-72
2021/01/12 01:41:39;;;;;;;6.63;4.40;;;;;;;-0.10;76.88;100264.84;5004402;28;20260;-72
2021/01/12 01:44:05;;;;;;;5.90;4.20;;;;;;;-0.11;77.11;100258.84;5002995;28;20202;-71
2021/01/12 01:46:32;;;;;;;6.17;3.77;;;;;;;-0.09;77.42;100262.31;5005029;28;20717;-71
2021/01/12 01:48:58;;;;;;;9.97;5.00;;;;;;;-0.06;76.92;100258.91;5004816;28;20230;-72
2021/01/12 01:51:26;;;;;;;6.00;4.07;;;;;;;-0.05;77.39;100252.94;5001510;28;20197;-72
2021/01/12 01:53:53;;;;;;;5.97;4.10;;;;;;;-0.04;77.23;100250.38;5002260;28;20216;-72
2021/01/12 01:56:20;;;;;;;5.97;3.87;;;;;;;-0.01;77.66;100249.56;5006472;28;20228;-70
2021/01/12 01:58:46;;;;;;;8.90;4.93;;;;;;;0.00;77.52;100241.03;5003816;28;20218;-71
2021/01/12 02:01:13;;;;;;;9.13;4.50;;;;;;;0.01;77.66;100229.94;5004191;28;21003;-72
2021/01/12 02:03:50;;;;;;;8.33;4.60;;;;;;;0.03;77.34;100225.66;5003350;28;20560;-73
2021/01/12 02:06:19;;;;;;;7.33;4.17;;;;;;;0.02;77.71;100218.84;5002077;28;20770;-71
2021/01/12 02:08:55;;;;;;;6.97;4.10;;;;;;;0.03;78.15;100202.59;5006888;28;20230;-73
2021/01/12 02:11:24;;;;;;;7.43;4.13;;;;;;;0.02;78.30;100195.78;5002373;28;20196;-72
2021/01/12 02:13:55;;;;;;;7.07;4.63;;;;;;;0.06;78.14;100199.22;5005391;28;20215;-71
2021/01/12 02:16:22;;;;;;;7.83;4.43;;;;;;;0.04;78.20;100194.06;5009410;28;20212;-72
2021/01/12 02:18:50;;;;;;;8.00;4.77;;;;;;;0.06;78.55;100196.66;5006001;28;20693;-71
2021/01/12 02:21:16;;;;;;;9.03;4.70;;;;;;;0.07;78.30;100191.56;4999378;28;20204;-73
2021/01/12 02:23:52;;;;;;;7.33;4.40;;;;;;;0.08;78.75;100193.25;4996011;28;20209;-73
2021/01/12 02:26:18;;;;;;;7.13;4.40;;;;;;;0.10;78.60;100185.56;5003847;28;20242;-72
2021/01/12 02:28:44;;;;;;;6.33;4.07;;;;;;;0.10;78.92;100181.31;5001876;28;20307;-73
2021/01/12 02:31:10;;;;;;;6.00;4.00;;;;;;;0.11;78.86;100174.50;5004941;28;20278;-73
2021/01/12 02:33:38;;;;;;;8.10;4.57;;;;;;;0.09;79.17;100166.78;5004933;28;21328;-71
2021/01/12 02:36:06;;;;;;;7.63;4.30;;;;;;;0.10;79.27;100163.34;5007988;28;20257;-73
2021/01/12 02:38:34;;;;;;;6.77;4.60;;;;;;;0.13;78.91;100149.72;5009279;28;20211;-71
2021/01/12 02:41:11;;;;;;;9.27;4.87;;;;;;;0.14;79.33;100146.28;5001462;28;20207;-73
2021/01/12 02:43:37;;;;;;;8.57;3.87;;;;;;;0.19;79.31;100144.63;5010300;28;20201;-73
2021/01/12 02:46:03;;;;;;;9.10;4.90;;;;;;;0.23;79.15;100132.69;5005142;28;20831;-72
2021/01/12 02:48:28;;;;;;;7.83;4.37;;;;;;;0.24;79.12;100122.44;5006081;28;20213;-73
2021/01/12 02:50:54;;;;;;;8.30;4.83;;;;;;;0.23;79.58;100118.19;4998854;28;20202;-72
2021/01/12 02:53:20;;;;;;;9.43;4.77;;;;;;;0.22;80.02;100113.03;5007998;28;20232;-73
2021/01/12 02:55:46;;;;;;;8.67;4.83;;;;;;;0.26;79.86;100107.09;5009138;28;20200;-73
2021/01/12 02:58:13;;;;;;;7.27;4.53;;;;;;;0.27;79.86;100096.84;5006717;28;20205;-72
2021/01/12 03:00:38;;;;;;;9.43;5.03;;;;;;;0.27;80.45;100098.56;5008234;28;20748;-73
2021/01/12 03:03:05;;;;;;;9.30;5.10;;;;;;;0.27;80.79;100085.72;5006996;28;20200;-71
2021/01/12 03:05:31;;;;;;;7.27;4.60;;;;;;;0.27;81.35;100084.03;5007907;28;20212;-72
2021/01/12 03:07:56;;;;;;;7.93;4.70;;;;;;;0.24;81.98;100088.28;5005138;28;20204;-72
2021/01/12 03:10:22;;;;;;;9.63;5.57;;;;;;;0.25;82.57;100072.06;5008944;28;20599;-73
2021/01/12 03:12:48;;;;;;;8.60;5.17;;;;;;;0.24;83.61;100078.84;5004984;28;20226;-72
2021/01/12 03:15:15;;;;;;;8.97;5.17;;;;;;;0.23;84.77;100068.59;5005099;28;20198;-73
2021/01/12 03:17:41;;;;;;;8.57;5.37;;;;;;;0.20;85.56;100060.91;5008363;28;20208;-72
2021/01/12 03:20:08;;;;;;;9.73;6.03;;;;;;;0.21;84.76;100049.78;5003415;28;20779;-72
2021/01/12 03:22:34;;;;;;;8.77;5.43;;;;;;;0.21;84.92;100042.94;5006271;28;20255;-71
2021/01/12 03:25:00;;;;;;;9.83;5.37;;;;;;;0.24;84.11;100050.66;5003817;28;20664;-72
2021/01/12 03:27:26;;;;;;;7.67;5.10;;;;;;;0.29;83.77;100036.16;5005971;28;20234;-73
2021/01/12 03:29:52;;;;;;;10.93;5.63;;;;;;;0.30;83.96;100037.00;5008115;28;20220;-72
2021/01/12 03:32:18;;;;;;;10.20;6.10;;;;;;;0.26;84.20;100035.28;5005374;28;20244;-72
2021/01/12 03:34:44;;;;;;;8.13;4.80;;;;;;;0.26;84.63;100025.03;5005232;28;20208;-73
2021/01/12 03:37:10;;;;;;;7.77;5.03;;;;;;;0.21;86.02;100021.56;5003988;28;20251;-72
2021/01/12 03:39:36;;;;;;;9.03;5.63;;;;;;;0.14;86.63;100013.84;5008027;28;20274;-73
2021/01/12 03:42:02;;;;;;;10.40;5.67;;;;;;;0.11;87.37;100010.41;5005499;28;20227;-72
2021/01/12 03:44:28;;;;;;;9.50;5.30;;;;;;;0.06;88.07;100002.69;5005140;28;20283;-72
2021/01/12 03:46:54;;;;;;;9.70;5.53;;;;;;;0.06;87.98;99997.56;5007248;28;20202;-73
2021/01/12 03:49:22;;;;;;;10.17;5.87;;;;;;;0.06;88.16;99995.00;5005507;28;20235;-73
2021/01/12 03:51:48;;;;;;;10.07;5.83;;;;;;;0.02;89.52;100002.63;5009265;28;20609;-72
2021/01/12 03:54:14;;;;;;;10.20;5.80;;;;;;;0.00;90.18;99989.84;5004108;28;20302;-72
2021/01/12 03:56:40;;;;;;;10.30;5.87;;;;;;;-0.02;90.32;99987.25;5006183;28;20606;-71
2021/01/12 03:59:05;;;;;;;10.83;5.53;;;;;;;-0.03;90.40;99989.81;5004121;28;20282;-72
2021/01/12 04:01:31;;;;;;;9.90;6.23;;;;;;;-0.04;91.32;99981.25;5007547;28;20650;-73
2021/01/12 04:03:57;;;;;;;10.00;5.70;;;;;;;-0.06;91.61;99987.22;5000651;28;20739;-72
2021/01/12 04:06:24;;;;;;;9.60;5.53;;;;;;;-0.08;92.23;99979.53;5008839;28;20250;-71
2021/01/12 04:08:54;;;;;;;9.90;5.83;;;;;;;-0.12;92.79;99988.03;5001346;28;20876;-71
2021/01/12 04:11:20;;;;;;;11.57;5.80;;;;;;;-0.16;93.29;99981.16;5007931;28;20260;-72
2021/01/12 04:13:46;;;;;;;9.67;6.10;;;;;;;-0.19;94.12;99970.91;5007999;28;20616;-70
2021/01/12 04:16:12;;;;;;;12.53;6.57;;;;;;;-0.25;94.70;99973.41;5008213;28;20235;-71
2021/01/12 04:18:38;;;;;;;11.67;6.03;;;;;;;-0.33;95.47;99978.50;5004068;28;20230;-71
2021/01/12 04:21:04;;;;;;;11.73;5.90;;;;;;;-0.40;96.30;99969.88;5009886;28;20205;-70
2021/01/12 04:23:31;;;;;;;12.10;6.63;;;;;;;-0.48;97.20;99966.41;5009349;28;20605;-70
2021/01/12 04:25:57;;;;;;;9.87;5.27;;;;;;;-0.51;97.49;99966.41;5007504;28;20198;-73
2021/01/12 04:28:23;;;;;;;11.40;6.03;;;;;;;-0.55;98.12;99959.50;5003411;28;20630;-73
2021/01/12 04:30:48;;;;;;;10.30;6.20;;;;;;;-0.60;98.78;99950.94;5005469;28;20272;-71
2021/01/12 04:33:14;;;;;;;10.87;5.77;;;;;;;-0.64;99.37;99956.88;5002606;28;20236;-70
2021/01/12 04:35:40;;;;;;;11.30;6.17;;;;;;;-0.68;99.69;99947.47;5008743;28;20719;-72
2021/01/12 04:38:06;;;;;;;13.27;6.57;;;;;;;-0.71;100.00;99944.88;5006394;28;20207;-72
2021/01/12 04:40:34;;;;;;;11.47;6.10;;;;;;;-0.74;100.00;99944.84;5008485;28;20236;-72
2021/01/12 04:43:00;;;;;;;13.10;6.47;;;;;;;-0.78;100.00;99936.28;5005627;28;20198;-72
2021/01/12 04:45:26;;;;;;;16.13;7.30;;;;;;;-0.81;100.00;99936.25;5008900;28;20622;-70
2021/01/12 04:47:52;;;;;;;12.37;7.10;;;;;;;-0.85;100.00;99926.81;5004998;28;20197;-71
2021/01/12 04:50:18;;;;;;;11.23;6.67;;;;;;;-0.85;100.00;99934.50;5007334;28;20271;-71
2021/01/12 04:52:45;;;;;;;13.50;6.80;;;;;;;-0.88;100.00;99916.56;5005980;28;20220;-73
2021/01/12 04:55:13;;;;;;;10.40;6.57;;;;;;;-0.90;100.00;99920.81;5003300;28;20196;-71
2021/01/12 04:57:39;;;;;;;11.23;6.67;;;;;;;-0.90;100.00;99928.47;5002145;28;20202;-71
2021/01/12 05:00:11;;;;;;;10.23;6.63;;;;;;;-0.92;100.00;99915.66;5002537;28;20228;-73
2021/01/12 05:02:37;;;;;;;13.33;7.57;;;;;;;-0.95;100.00;99913.06;5001576;28;20232;-71
2021/01/12 05:05:04;;;;;;;12.37;6.77;;;;;;;-0.96;100.00;99906.25;4999482;28;20215;-71
2021/01/12 05:07:30;;;;;;;12.90;6.67;;;;;;;-0.98;100.00;99906.25;5007394;28;20213;-73
2021/01/12 05:09:57;;;;;;;10.97;6.40;;;;;;;-0.98;100.00;99906.25;5006513;28;20228;-73
2021/01/12 05:12:25;;;;;;;12.27;7.13;;;;;;;-0.98;100.00;99913.06;5007255;28;20216;-75
2021/01/12 05:14:56;;;;;;;11.70;6.33;;;;;;;-0.99;100.00;99901.09;5006275;28;20213;-71
2021/01/12 05:17:23;;;;;;;14.27;7.03;;;;;;;-0.98;100.00;99895.16;5002521;28;20776;-71
2021/01/12 05:19:55;;;;;;;11.40;6.43;;;;;;;-0.98;100.00;99892.59;4999162;28;20625;-72
2021/01/12 05:22:21;;;;;;;10.50;6.50;;;;;;;-0.99;100.00;99891.72;5007341;28;20200;-74
2021/01/12 05:24:48;;;;;;;10.63;6.60;;;;;;;-1.00;100.00;99890.00;5008800;28;20738;-73
2021/01/12 05:27:15;;;;;;;11.30;6.37;;;;;;;-1.02;100.00;99891.72;5005663;28;20204;-70
2021/01/12 05:29:41;;;;;;;12.03;6.87;;;;;;;-1.03;100.00;99884.88;5003103;28;20224;-71
2021/01/12 05:32:09;;;;;;;12.77;7.40;;;;;;;-1.04;100.00;99879.72;5004249;28;20505;-75
2021/01/12 05:34:35;;;;;;;13.07;6.43;;;;;;;-1.03;100.00;99877.19;5003436;28;20697;-75
2021/01/12 05:37:04;;;;;;;10.70;6.07;;;;;;;-1.05;100.00;99867.78;5002459;28;20211;-75
2021/01/12 05:39:36;;;;;;;10.67;6.40;;;;;;;-1.04;100.00;99878.06;5003189;28;20225;-70
2021/01/12 05:42:05;;;;;;;11.70;6.47;;;;;;;-1.04;100.00;99867.81;5002560;28;20219;-70
2021/01/12 05:44:35;;;;;;;10.10;5.90;;;;;;;-1.05;100.00;99867.78;5007386;28;20209;-71
2021/01/12 05:47:01;;;;;;;9.57;5.93;;;;;;;-1.04;100.00;99865.25;5001838;28;20207;-71
2021/01/12 05:49:29;;;;;;;9.87;5.87;;;;;;;-1.07;100.00;99854.97;5006916;28;20715;-72
2021/01/12 05:51:54;;;;;;;9.73;6.00;;;;;;;-1.07;100.00;99854.97;5005200;28;20243;-71
2021/01/12 05:54:31;;;;;;;8.97;5.70;;;;;;;-1.05;100.00;99849.88;5007147;28;20216;-71
2021/01/12 05:56:58;;;;;;;11.60;7.07;;;;;;;-1.08;100.00;99848.13;5004417;28;20560;-74
2021/01/12 05:59:26;;;;;;;12.37;6.03;;;;;;;-1.08;100.00;99840.47;5006384;28;20290;-72
2021/01/12 06:01:53;;;;;;;11.40;6.07;;;;;;;-1.08;100.00;99837.91;5004915;28;20219;-70
2021/01/12 06:04:20;;;;;;;9.37;5.77;;;;;;;-1.07;100.00;99839.63;5006066;28;20216;-73
2021/01/12 06:06:49;;;;;;;11.30;6.43;;;;;;;-1.06;100.00;99832.81;5002080;28;20760;-71
2021/01/12 06:09:16;;;;;;;11.27;6.27;;;;;;;-1.07;100.00;99828.50;5006255;28;20238;-72
2021/01/12 06:11:44;;;;;;;11.77;6.70;;;;;;;-1.07;100.00;99825.97;5003813;28;20715;-73
2021/01/12 06:14:12;;;;;;;9.30;5.87;;;;;;;-1.07;100.00;99831.06;5005773;28;20228;-70
2021/01/12 06:16:39;;;;;;;11.60;6.57;;;;;;;-1.09;100.00;99830.22;5005918;28;20209;-72
2021/01/12 06:19:11;;;;;;;10.70;5.80;;;;;;;-1.09;100.00;99823.41;5001589;28;20227;-74
2021/01/12 06:22:08;;;;;;;9.37;5.57;;;;;;;-1.09;100.00;99810.63;5002278;28;20296;-72
2021/01/12 06:24:45;;;;;;;9.07;5.73;;;;;;;-1.10;100.00;99816.56;5001723;28;20284;-74
2021/01/12 06:27:13;;;;;;;8.90;4.97;;;;;;;-1.07;100.00;99815.72;4999866;28;20275;-71
2021/01/12 06:29:39;;;;;;;8.90;5.53;;;;;;;-1.08;100.00;99812.31;5006085;28;20223;-71
2021/01/12 06:32:06;;;;;;;9.37;5.83;;;;;;;-1.06;100.00;99809.78;5001309;28;20573;-72
2021/01/12 06:34:32;;;;;;;8.10;5.47;;;;;;;-1.06;100.00;99808.06;5000422;28;20227;-74
2021/01/12 06:36:59;;;;;;;18.57;7.23;;;;;;;-1.06;100.00;99802.09;5001484;28;20236;-71
2021/01/12 06:39:32;;;;;;;27.13;12.67;;;;;;;-1.06;100.00;99802.09;5004362;28;20573;-71
2021/01/12 06:41:58;;;;;;;15.27;7.97;;;;;;;-1.04;100.00;99795.28;5000303;28;20209;-73
2021/01/12 06:44:26;;;;;;;17.73;9.97;;;;;;;-1.05;100.00;99788.47;5006024;28;20255;-71
2021/01/12 06:46:53;;;;;;;17.57;8.67;;;;;;;-1.04;100.00;99779.94;5002172;28;20693;-73
2021/01/12 06:49:20;;;;;;;21.97;10.33;;;;;;;-1.04;100.00;99785.06;5004781;28;20228;-73
2021/01/12 06:51:59;;;;;;;23.67;11.47;;;;;;;-1.04;100.00;99780.81;5003124;28;20201;-72
2021/01/12 06:54:30;;;;;;;43.03;14.87;;;;;;;-1.02;100.00;99780.78;5007728;28;20239;-72
2021/01/12 06:57:00;;;;;;;33.43;13.07;;;;;;;-1.01;100.00;99772.28;5021793;28;20200;-76
2021/01/12 06:59:37;;;;;;;34.57;12.57;;;;;;;-1.02;100.00;99781.69;5006877;28;20236;-71
2021/01/12 07:02:15;;;;;;;23.63;10.47;;;;;;;-1.02;100.00;99770.56;5007154;28;20197;-73
2021/01/12 07:04:52;;;;;;;30.17;11.53;;;;;;;-1.00;100.00;99771.44;5007422;28;20204;-71
2021/01/12 07:07:22;;;;;;;21.67;10.40;;;;;;;-1.00;100.00;99767.19;5002646;28;20212;-73
2021/01/12 07:09:48;;;;;;;24.37;11.33;;;;;;;-0.98;100.00;99770.59;5003838;28;20231;-72
2021/01/12 07:12:20;;;;;;;20.40;9.23;;;;;;;-0.98;100.00;99767.19;5008082;28;20220;-71
2021/01/12 07:14:47;;;;;;;30.60;14.10;;;;;;;-0.96;100.00;99765.50;5002419;28;20713;-71
2021/01/12 07:17:13;;;;;;;22.63;11.80;;;;;;;-0.95;100.00;99759.53;5004237;28;20197;-71
2021/01/12 07:19:39;;;;;;;28.33;14.83;;;;;;;-0.96;100.00;99762.94;5009222;28;20236;-72
2021/01/12 07:22:07;;;;;;;23.03;10.90;;;;;;;-0.98;100.00;99760.38;5005164;28;20232;-73
2021/01/12 07:24:38;;;;;;;23.33;9.90;;;;;;;-0.97;100.00;99756.09;5002206;28;20236;-73
2021/01/12 07:27:05;;;;;;;15.20;8.87;;;;;;;-0.97;100.00;99749.31;5004016;28;20205;-71
2021/01/12 07:29:31;;;;;;;15.07;8.37;;;;;;;-0.97;100.00;99748.41;5007882;28;20575;-71
2021/01/12 07:32:02;;;;;;;12.10;7.00;;;;;;;-0.96;100.00;99755.28;5007464;28;20203;-72
2021/01/12 07:34:35;;;;;;;11.17;6.70;;;;;;;-0.93;100.00;99754.41;5006323;28;20216;-70
2021/01/12 07:37:04;;;;;;;12.70;7.60;;;;;;;-0.93;100.00;99754.41;5002102;28;20208;-73
2021/01/12 07:39:32;;;;;;;12.27;6.80;;;;;;;-0.94;100.00;99747.59;5006387;28;20629;-72
2021/01/12 07:41:58;;;;;;;10.87;6.47;;;;;;;-0.93;100.00;99750.19;5001505;28;20205;-71
2021/01/12 07:44:26;;;;;;;12.17;6.80;;;;;;;-0.91;100.00;99742.50;5006339;28;20213;-71
2021/01/12 07:46:57;;;;;;;11.17;6.60;;;;;;;-0.90;100.00;99739.09;5006705;28;20707;-71
2021/01/12 07:49:24;;;;;;;10.03;6.47;;;;;;;-0.90;100.00;99734.81;4999643;28;20274;-72
2021/01/12 07:51:50;;;;;;;10.87;6.67;;;;;;;-0.89;100.00;99738.25;5007063;28;20895;-71
2021/01/12 07:54:23;;;;;;;9.93;6.63;;;;;;;-0.90;100.00;99739.09;5005952;28;20244;-72
2021/01/12 07:56:51;;;;;;;9.83;6.27;;;;;;;-0.90;100.00;99737.38;5005601;28;20201;-73
2021/01/12 07:59:17;;;;;;;12.47;7.37;;;;;;;-0.90;100.00;99731.41;5003463;28;20228;-73
2021/01/12 08:01:43;;;;;;;11.60;7.00;;;;;;;-0.91;100.00;99734.84;5003682;28;20208;-74
2021/01/12 08:04:12;;;;;;;15.33;8.97;;;;;;;-0.92;100.00;99728.84;5004502;28;20204;-72
2021/01/12 08:06:42;;;;;;;24.63;11.63;;;;;;;-0.93;100.00;99729.69;5004341;28;20573;-72
2021/01/12 08:09:08;;;;;;;38.77;16.53;;;;;;;-0.94;100.00;99725.41;5005199;28;20239;-71
2021/01/12 08:11:35;;;;;;;16.23;8.63;;;;;;;-0.94;100.00;99722.84;5004930;28;20557;-71
2021/01/12 08:14:05;;;;;;;13.10;7.47;;;;;;;-0.93;100.00;99728.81;5003656;28;20267;-74
2021/01/12 08:16:32;;;;;;;12.23;7.40;;;;;;;-0.93;100.00;99727.16;5004582;28;20220;-74
2021/01/12 08:18:58;;;;;;;12.37;7.00;;;;;;;-0.88;100.00;99716.91;5004979;28;20242;-73
2021/01/12 08:21:24;;;;;;;12.57;7.20;;;;;;;-0.90;100.00;99718.63;5005134;28;20658;-71
2021/01/12 08:23:59;;;;;;;11.53;6.47;;;;;;;-0.93;100.00;99711.78;5005880;28;20685;-72
2021/01/12 08:26:25;;;;;;;8.83;6.10;;;;;;;-0.92;100.00;99710.06;5004675;28;20208;-71
2021/01/12 08:28:51;;;;;;;9.90;5.43;;;;;;;-0.91;100.00;99714.34;5003786;28;20706;-71
2021/01/12 08:31:17;;;;;;;8.23;5.57;;;;;;;-0.91;100.00;99709.25;5003775;28;20278;-73
2021/01/12 08:33:46;;;;;;;8.40;5.67;;;;;;;-0.91;100.00;99706.69;5005961;28;20229;-73
2021/01/12 08:36:16;;;;;;;9.53;5.50;;;;;;;-0.94;100.00;99702.38;5002802;28;20215;-73
2021/01/12 08:38:48;;;;;;;9.60;5.60;;;;;;;-0.93;100.00;99690.44;5004917;28;20301;-71
2021/01/12 08:41:15;;;;;;;8.03;5.30;;;;;;;-0.92;100.00;99697.28;5006055;28;20209;-71
2021/01/12 08:43:43;;;;;;;9.07;5.07;;;;;;;-0.93;100.00;99693.00;5006204;28;20212;-73
2021/01/12 08:46:09;;;;;;;9.33;5.43;;;;;;;-0.93;100.00;99685.31;5005125;28;20660;-71
2021/01/12 08:48:35;;;;;;;6.63;4.43;;;;;;;-0.93;100.00;99693.00;5006923;28;20292;-71
2021/01/12 08:51:01;;;;;;;7.13;4.60;;;;;;;-0.93;100.00;99693.88;5001521;28;20200;-73
2021/01/12 08:53:28;;;;;;;7.47;4.73;;;;;;;-0.91;100.00;99686.22;5006623;28;20746;-72
2021/01/12 08:56:05;;;;;;;8.80;4.97;;;;;;;-0.92;100.00;99684.47;5004179;28;20621;-72
2021/01/12 08:58:31;;;;;;;8.30;4.97;;;;;;;-0.93;100.00;99691.31;5003886;28;20290;-74
2021/01/12 09:00:56;;;;;;;8.90;5.00;;;;;;;-0.93;100.00;99683.63;5004464;28;20212;-76
2021/01/12 09:03:25;;;;;;;6.77;4.20;;;;;;;-0.91;100.00;99686.22;5003321;28;20614;-73
2021/01/12 09:05:53;;;;;;;6.30;4.63;;;;;;;-0.93;100.00;99678.53;5003954;28;20228;-72
2021/01/12 09:08:21;;;;;;;6.77;4.33;;;;;;;-0.91;100.00;99674.25;5005897;28;20781;-74
2021/01/12 09:10:47;;;;;;;5.90;4.17;;;;;;;-0.91;100.00;99674.25;5004879;28;20204;-73
2021/01/12 09:13:14;;;;;;;6.13;4.23;;;;;;;-0.89;100.00;99676.81;5003780;28;20220;-71
2021/01/12 09:15:41;;;;;;;6.37;4.23;;;;;;;-0.89;100.00;99664.03;5004710;28;20555;-72
2021/01/12 09:18:09;;;;;;;7.27;4.90;;;;;;;-0.90;100.00;99665.72;5006134;28;20643;-71
2021/01/12 09:20:37;;;;;;;7.63;4.77;;;;;;;-0.92;100.00;99664.84;5004864;28;20299;-73
2021/01/12 09:23:07;;;;;;;7.63;4.73;;;;;;;-0.91;100.00;99665.72;5006120;28;20231;-72
2021/01/12 09:25:34;;;;;;;7.30;5.10;;;;;;;-0.90;100.00;99658.03;5005215;28;20201;-71
2021/01/12 09:28:14;;;;;;;7.47;4.77;;;;;;;-0.89;100.00;99664.03;5004579;28;20240;-70
2021/01/12 09:30:42;;;;;;;7.73;5.53;;;;;;;-0.89;100.00;99646.97;5003542;28;20212;-71
2021/01/12 09:33:08;;;;;;;8.13;6.00;;;;;;;-0.89;100.00;99652.09;5005051;28;20216;-72
2021/01/12 09:35:34;;;;;;;7.17;4.77;;;;;;;-0.89;100.00;99652.09;5002399;28;20205;-72
2021/01/12 09:38:01;;;;;;;7.63;4.93;;;;;;;-0.90;100.00;99647.78;5003633;28;20208;-74
2021/01/12 09:40:28;;;;;;;8.37;5.70;;;;;;;-0.87;100.00;99647.81;4999923;28;20235;-72
2021/01/12 09:42:54;;;;;;;5.73;4.23;;;;;;;-0.87;100.00;99647.81;5016604;28;20205;-74
2021/01/12 09:45:21;;;;;;;7.67;5.03;;;;;;;-0.87;100.00;99644.41;5003094;28;20197;-74
2021/01/12 09:47:47;;;;;;;8.23;4.50;;;;;;;-0.83;100.00;99639.31;5005457;28;20197;-72
2021/01/12 09:50:14;;;;;;;8.43;5.00;;;;;;;-0.83;100.00;99639.31;5002774;28;20227;-71
2021/01/12 09:52:39;;;;;;;8.40;4.87;;;;;;;-0.80;100.00;99635.91;5002625;28;20565;-71
2021/01/12 09:55:06;;;;;;;8.07;4.83;;;;;;;-0.80;100.00;99630.78;5004163;28;20303;-71
2021/01/12 09:57:35;;;;;;;7.50;4.97;;;;;;;-0.75;100.00;99633.38;5002100;28;20201;-71
2021/01/12 10:00:01;;;;;;;7.23;4.93;;;;;;;-0.74;100.00;99630.81;5002819;28;20311;-74
2021/01/12 10:02:32;;;;;;;7.07;4.87;;;;;;;-0.73;100.00;99631.69;5006496;28;20954;-70
2021/01/12 10:04:58;;;;;;;5.73;4.10;;;;;;;-0.73;100.00;99618.88;5001847;28;20213;-71
2021/01/12 10:07:23;;;;;;;7.77;4.57;;;;;;;-0.72;100.00;99618.00;5005177;28;20684;-70
2021/01/12 10:09:49;;;;;;;6.47;4.10;;;;;;;-0.71;100.00;99614.63;5004436;28;20562;-71
2021/01/12 10:12:15;;;;;;;6.40;4.00;;;;;;;-0.70;100.00;99609.50;5004226;28;20326;-75
2021/01/12 10:14:41;;;;;;;5.27;3.97;;;;;;;-0.67;100.00;99606.09;5003187;28;20212;-74
2021/01/12 10:17:09;;;;;;;3.87;3.00;;;;;;;-0.68;100.00;99605.25;5004186;28;20282;-71
2021/01/12 10:19:35;;;;;;;4.80;3.30;;;;;;;-0.66;100.00;99602.69;5000703;28;20236;-71
2021/01/12 10:22:01;;;;;;;4.40;3.20;;;;;;;-0.67;100.00;99595.84;5001330;28;20721;-70
2021/01/12 10:24:27;;;;;;;5.73;4.10;;;;;;;-0.65;100.00;99595.00;5005513;28;20228;-71
2021/01/12 10:26:53;;;;;;;4.77;3.20;;;;;;;-0.63;100.00;99597.59;5005077;28;20682;-71
2021/01/12 10:29:20;;;;;;;4.67;3.17;;;;;;;-0.59;100.00;99591.59;5005892;28;20678;-71
2021/01/12 10:31:48;;;;;;;3.53;2.83;;;;;;;-0.58;100.00;99581.38;5012350;28;20256;-71
2021/01/12 10:34:14;;;;;;;3.13;2.53;;;;;;;-0.54;100.00;99579.69;5011785;28;20296;-71
2021/01/12 10:36:40;;;;;;;4.67;2.90;;;;;;;-0.50;100.00;99580.53;5008375;28;20658;-72
2021/01/12 10:39:06;;;;;;;8.00;4.10;;;;;;;-0.48;100.00;99579.69;5013182;28;20286;-72
2021/01/12 10:41:37;;;;;;;10.03;5.30;;;;;;;-0.48;100.00;99569.44;5008427;28;20197;-74
2021/01/12 10:44:03;;;;;;;8.43;5.17;;;;;;;-0.44;100.00;99565.16;5011413;28;20550;-73
2021/01/12 10:46:29;;;;;;;6.07;4.17;;;;;;;-0.40;100.00;99562.63;5009477;28;20558;-71
2021/01/12 10:48:55;;;;;;;5.80;4.33;;;;;;;-0.36;100.00;99558.34;5011298;28;20217;-73
2021/01/12 10:51:21;;;;;;;4.30;3.40;;;;;;;-0.32;100.00;99554.09;5007378;28;20205;-72
2021/01/12 10:53:48;;;;;;;4.63;3.03;;;;;;;-0.31;100.00;99553.25;5008885;28;20234;-72
2021/01/12 10:56:14;;;;;;;4.67;2.87;;;;;;;-0.31;100.00;99546.41;5006870;28;20198;-71
2021/01/12 10:58:40;;;;;;;5.33;3.00;;;;;;;-0.27;100.00;99540.44;5008272;28;20690;-72
2021/01/12 11:01:06;;;;;;;3.33;2.60;;;;;;;-0.27;100.00;99537.88;5006983;28;20216;-72
2021/01/12 11:03:32;;;;;;;4.00;2.90;;;;;;;-0.29;100.00;99521.66;5009785;28;20716;-72
2021/01/12 11:05:58;;;;;;;3.50;2.57;;;;;;;-0.27;100.00;99535.31;5022628;28;20205;-71
2021/01/12 11:08:25;;;;;;;3.87;2.67;;;;;;;-0.27;100.00;99526.78;5005898;28;20208;-71
2021/01/12 11:10:52;;;;;;;3.20;2.47;;;;;;;-0.27;100.00;99525.06;5003298;28;20208;-72
2021/01/12 11:13:18;;;;;;;4.03;2.50;;;;;;;-0.26;100.00;99513.13;5005820;28;20213;-72
2021/01/12 11:15:44;;;;;;;3.47;2.40;;;;;;;-0.24;100.00;99512.25;5005354;28;20210;-72
2021/01/12 11:18:10;;;;;;;4.80;2.27;;;;;;;-0.21;100.00;99506.28;5008816;28;20273;-72
2021/01/12 11:20:36;;;;;;;3.03;2.00;;;;;;;-0.18;100.00;99505.44;5004629;28;20234;-73
2021/01/12 11:23:02;;;;;;;2.77;1.93;;;;;;;-0.18;100.00;99498.59;5007979;28;20276;-72
2021/01/12 11:25:28;;;;;;;2.77;2.23;;;;;;;-0.17;100.00;99487.50;5004800;28;20300;-72